Time;durP1;ratioP1;P1;durP2;ratioP2;P2;SDS_P1;SDS_P2;PMS_P1;PMS_P2;Temp;Humidity;BMP_temperature;BMP_pressure;BME280_temperature;BME280_humidity;BME280_pressure;Samples;Min_cycle;Max_cycle;Signal;HPM_P1;HPM_P2
2021/04/22 08:54:51;;;;;;;12.43;6.00;;;;;;;16.40;42.80;100302.44;1782612;77;22479;-71
2021/04/22 08:57:19;;;;;;;7.72;5.00;;;;;;;16.37;43.07;100305.69;1753842;82;21871;-69
2021/04/22 08:59:47;;;;;;;9.98;5.30;;;;;;;16.44;43.06;100311.94;1752346;81;21150;-73
2021/04/22 09:02:14;;;;;;;10.15;4.55;;;;;;;16.52;42.70;100288.63;1753588;81;21134;-72
2021/04/22 09:05:13;;;;;;;12.40;5.33;;;;;;;16.60;42.96;100291.87;1754216;82;21893;-74
2021/04/22 09:07:43;;;;;;;9.25;4.60;;;;;;;16.69;42.70;100300.69;1752217;81;21158;-74
2021/04/22 09:10:13;;;;;;;6.33;5.00;;;;;;;16.79;41.56;100305.08;1735435;82;21395;-71
2021/04/22 09:12:41;;;;;;;8.78;4.05;;;;;;;16.86;41.53;100307.73;1722412;83;21457;-72
2021/04/22 09:15:13;;;;;;;5.53;4.28;;;;;;;16.91;40.60;100313.41;1724278;83;21646;-73
2021/04/22 09:17:41;;;;;;;13.38;5.03;;;;;;;16.97;40.56;100286.15;1724216;83;21640;-72
2021/04/22 09:20:10;;;;;;;10.82;3.87;;;;;;;17.10;40.47;100292.81;1722225;83;21431;-71
2021/04/22 09:22:41;;;;;;;6.72;4.30;;;;;;;17.26;39.73;100297.59;1723034;82;21171;-72
2021/04/22 09:25:19;;;;;;;8.10;4.30;;;;;;;17.32;39.76;100292.46;1722354;82;21298;-72
2021/04/22 09:27:48;;;;;;;5.72;4.17;;;;;;;17.41;39.45;100298.45;1724070;83;21191;-73
2021/04/22 09:30:16;;;;;;;7.47;4.65;;;;;;;17.54;39.54;100287.64;1722414;83;21180;-72
2021/04/22 09:32:44;;;;;;;8.68;5.78;;;;;;;17.64;39.56;100289.26;1723572;82;21217;-77
2021/04/22 09:35:14;;;;;;;18.77;8.18;;;;;;;17.71;38.99;100287.22;1717131;83;21936;-78
2021/04/22 09:37:47;;;;;;;11.33;5.47;;;;;;;17.73;39.13;100291.42;1724227;82;21165;-76
2021/04/22 09:40:31;;;;;;;9.43;4.87;;;;;;;17.70;39.21;100284.14;1726518;82;21142;-78
2021/04/22 09:43:00;;;;;;;8.43;5.28;;;;;;;17.64;39.16;100275.41;1650346;86;21887;-75
2021/04/22 09:45:31;;;;;;;12.60;6.30;;;;;;;17.54;39.10;100266.86;1650244;87;21456;-70
2021/04/22 09:48:00;;;;;;;9.03;5.85;;;;;;;17.51;39.15;100267.36;1648570;86;21316;-77
2021/04/22 09:50:30;;;;;;;6.65;4.30;;;;;;;17.60;39.25;100259.82;1650327;86;21640;-73
2021/04/22 09:52:58;;;;;;;8.90;5.80;;;;;;;17.73;38.73;100268.41;1650093;85;21201;-68
2021/04/22 09:55:32;;;;;;;8.98;5.40;;;;;;;17.77;38.57;100264.59;1691564;84;21460;-68
2021/04/22 09:57:59;;;;;;;6.20;3.87;;;;;;;17.74;38.49;100264.55;1697357;83;21880;-74
2021/04/22 10:00:29;;;;;;;11.68;5.65;;;;;;;17.66;38.56;100267.69;1698763;84;21889;-75
2021/04/22 10:02:59;;;;;;;25.37;11.55;;;;;;;17.57;38.53;100263.09;1696992;84;21922;-75
2021/04/22 10:05:34;;;;;;;52.45;22.02;;;;;;;17.53;38.70;100259.64;1699675;84;21163;-73
2021/04/22 10:08:16;;;;;;;12.25;6.87;;;;;;;17.52;38.90;100260.19;1698948;84;21211;-69
2021/04/22 10:11:06;;;;;;;14.78;7.15;;;;;;;17.47;39.12;100255.08;1692743;84;21179;-75
2021/04/22 10:13:45;;;;;;;14.73;7.10;;;;;;;17.37;39.59;100250.18;1687417;84;21160;-75
2021/04/22 10:16:13;;;;;;;10.35;5.83;;;;;;;17.28;39.70;100259.97;1685744;84;21147;-78
2021/04/22 10:18:48;;;;;;;28.40;13.95;;;;;;;17.26;39.41;100257.98;1685708;84;21175;-72
2021/04/22 10:21:13;;;;;;;14.80;9.43;;;;;;;17.23;39.41;100259.86;1684746;84;21167;-69
2021/04/22 10:23:41;;;;;;;12.30;8.43;;;;;;;17.23;39.55;100273.16;1684092;84;21461;-69
2021/04/22 10:26:20;;;;;;;14.95;6.97;;;;;;;17.18;39.63;100266.12;1687739;84;21166;-72
2021/04/22 10:28:49;;;;;;;11.70;6.83;;;;;;;17.09;40.51;100268.98;1685394;84;21194;-76
2021/04/22 10:31:16;;;;;;;11.03;5.42;;;;;;;16.97;41.63;100272.31;1672701;86;21179;-72
2021/04/22 10:33:43;;;;;;;14.98;6.72;;;;;;;16.85;43.62;100263.14;1687353;84;21183;-68
2021/04/22 10:36:12;;;;;;;8.98;4.78;;;;;;;16.71;45.64;100272.24;1686032;83;21354;-68
2021/04/22 10:38:40;;;;;;;8.63;4.67;;;;;;;16.58;45.62;100273.30;1696648;84;21418;-68
2021/04/22 10:41:07;;;;;;;10.30;6.58;;;;;;;16.48;46.93;100270.28;1686454;84;21175;-67
2021/04/22 10:43:36;;;;;;;11.33;5.83;;;;;;;16.42;47.38;100269.86;1697496;84;21334;-68
2021/04/22 10:46:04;;;;;;;10.28;6.50;;;;;;;16.42;48.60;100270.70;1697203;84;21168;-68
2021/04/22 10:48:31;;;;;;;44.33;25.02;;;;;;;16.44;49.56;100277.37;1625060;87;21207;-69
2021/04/22 10:50:59;;;;;;;12.50;6.83;;;;;;;16.46;49.62;100277.98;1642849;86;21593;-67
2021/04/22 10:53:27;;;;;;;7.90;5.50;;;;;;;16.45;49.57;100277.67;1690244;84;21443;-67
2021/04/22 10:55:55;;;;;;;11.15;7.12;;;;;;;16.39;48.82;100275.87;1646254;84;21441;-67
2021/04/22 10:58:29;;;;;;;15.40;8.30;;;;;;;16.31;48.82;100289.50;1706151;83;21178;-67
2021/04/22 11:01:03;;;;;;;10.70;6.47;;;;;;;16.23;49.09;100304.19;1659685;86;21182;-67
2021/04/22 11:03:39;;;;;;;13.28;7.53;;;;;;;16.07;49.21;100295.49;1685146;83;21174;-75
2021/04/22 11:06:17;;;;;;;19.15;9.38;;;;;;;15.95;48.20;100278.03;1687557;83;21469;-72
2021/04/22 11:08:53;;;;;;;9.23;5.67;;;;;;;15.90;49.98;100270.15;1690834;83;21503;-68
2021/04/22 11:11:27;;;;;;;16.07;6.83;;;;;;;15.88;51.11;100260.72;1654807;86;21176;-70
2021/04/22 11:14:11;;;;;;;30.37;14.95;;;;;;;15.87;51.14;100259.03;1684278;84;21197;-75
2021/04/22 11:16:41;;;;;;;26.82;12.75;;;;;;;15.85;50.16;100257.89;1690224;83;21804;-71
2021/04/22 11:19:22;;;;;;;22.50;10.40;;;;;;;15.79;50.10;100269.88;1687013;83;21157;-68
2021/04/22 11:21:58;;;;;;;21.25;9.83;;;;;;;15.76;51.02;100275.03;1700981;83;21472;-69
2021/04/22 11:24:40;;;;;;;23.27;11.90;;;;;;;15.70;51.66;100271.29;1676979;84;21452;-71
2021/04/22 11:27:11;;;;;;;10.78;6.30;;;;;;;15.72;53.24;100261.38;1666102;84;21590;-69
2021/04/22 11:29:46;;;;;;;12.15;5.97;;;;;;;15.76;53.40;100246.87;1696440;84;21277;-70
2021/04/22 11:32:18;;;;;;;16.93;9.18;;;;;;;15.76;52.79;100253.77;1700447;84;21166;-72
2021/04/22 11:34:47;;;;;;;23.05;11.03;;;;;;;15.77;53.55;100248.55;1698178;84;21158;-71
2021/04/22 11:37:31;;;;;;;13.13;7.55;;;;;;;15.86;54.52;100260.11;1684981;83;21262;-71
2021/04/22 11:40:11;;;;;;;10.72;5.87;;;;;;;16.05;55.88;100249.28;1711238;83;21260;-71
2021/04/22 11:42:43;;;;;;;12.28;6.85;;;;;;;16.24;55.13;100255.56;1687716;83;21198;-72
2021/04/22 11:45:14;;;;;;;9.90;5.75;;;;;;;16.34;55.36;100255.00;1650907;86;21369;-72
2021/04/22 11:47:57;;;;;;;9.60;5.37;;;;;;;16.41;55.62;100252.96;1658888;85;21238;-71
2021/04/22 11:50:31;;;;;;;9.50;5.28;;;;;;;16.50;55.34;100236.31;1699732;84;21194;-69
2021/04/22 11:53:01;;;;;;;11.15;5.37;;;;;;;16.64;55.47;100232.22;1697951;84;21433;-67
2021/04/22 11:55:34;;;;;;;10.25;5.58;;;;;;;16.79;54.11;100236.74;1701757;83;21175;-70
2021/04/22 11:58:11;;;;;;;9.65;5.58;;;;;;;16.99;53.76;100218.39;1695737;84;21266;-67
2021/04/22 12:00:43;;;;;;;8.35;5.08;;;;;;;17.21;53.38;100214.95;1699029;83;21352;-67
2021/04/22 12:03:12;;;;;;;7.10;4.37;;;;;;;17.40;52.48;100208.14;1692308;83;21392;-71
2021/04/22 12:05:40;;;;;;;8.78;5.50;;;;;;;17.50;51.57;100204.73;1674230;83;21201;-74
2021/04/22 12:08:10;;;;;;;5.45;4.25;;;;;;;17.55;50.68;100213.13;1685920;83;21170;-69
2021/04/22 12:10:42;;;;;;;8.93;4.30;;;;;;;17.56;50.52;100194.07;1698231;84;21165;-69
2021/04/22 12:13:18;;;;;;;9.13;5.00;;;;;;;17.58;50.45;100186.35;1682298;83;21459;-74
2021/04/22 12:15:49;;;;;;;12.33;5.90;;;;;;;17.57;49.72;100188.28;1699072;83;21404;-73
2021/04/22 12:18:29;;;;;;;9.68;5.00;;;;;;;17.52;49.09;100185.38;1702312;83;21164;-72
2021/04/22 12:21:20;;;;;;;10.18;5.15;;;;;;;17.48;48.27;100185.59;1701868;83;21183;-69
2021/04/22 12:23:54;;;;;;;6.50;4.47;;;;;;;17.39;49.06;100176.83;1697429;83;21385;-72
2021/04/22 12:26:29;;;;;;;9.20;4.90;;;;;;;17.28;49.17;100180.50;1687328;84;21167;-71
2021/04/22 12:29:07;;;;;;;9.25;4.60;;;;;;;17.17;50.20;100181.38;1703883;84;21178;-71
2021/04/22 12:31:42;;;;;;;6.30;4.55;;;;;;;17.08;49.48;100185.09;1699740;83;21153;-73
2021/04/22 12:34:23;;;;;;;8.83;4.60;;;;;;;16.95;48.59;100190.91;1693645;83;21492;-71
2021/04/22 12:37:07;;;;;;;9.50;5.03;;;;;;;16.83;49.04;100184.52;1698548;83;21211;-73
2021/04/22 12:39:46;;;;;;;9.35;4.80;;;;;;;16.74;49.79;100192.91;1692739;83;21214;-72
2021/04/22 12:42:23;;;;;;;6.33;4.28;;;;;;;16.69;49.65;100197.78;1694785;83;21556;-72
2021/04/22 12:44:59;;;;;;;8.08;3.77;;;;;;;16.61;48.31;100205.03;1696882;83;21491;-71
2021/04/22 12:47:52;;;;;;;5.97;4.15;;;;;;;16.48;47.46;100192.84;1694296;84;21159;-70
2021/04/22 12:50:28;;;;;;;4.87;3.67;;;;;;;16.36;47.85;100192.01;1701414;84;21331;-68
2021/04/22 12:53:19;;;;;;;4.58;3.58;;;;;;;16.24;48.75;100188.37;1694789;82;22097;-70
2021/04/22 12:55:55;;;;;;;5.55;3.72;;;;;;;16.16;49.21;100176.59;1703239;83;21151;-75
2021/04/22 12:58:32;;;;;;;7.85;3.98;;;;;;;16.09;49.58;100170.88;1700761;83;21161;-68
2021/04/22 13:01:05;;;;;;;5.55;4.00;;;;;;;16.13;50.54;100170.16;1701282;82;21361;-72
2021/04/22 13:03:34;;;;;;;6.85;3.87;;;;;;;16.22;50.25;100161.50;1700037;82;21406;-75
2021/04/22 13:06:07;;;;;;;7.42;4.12;;;;;;;16.29;49.91;100163.64;1699224;83;21218;-67
2021/04/22 13:08:36;;;;;;;7.47;4.53;;;;;;;16.37;49.17;100161.34;1698371;83;21591;-73
2021/04/22 13:11:05;;;;;;;8.40;5.00;;;;;;;16.47;48.81;100161.58;1691836;84;21158;-70
2021/04/22 13:13:37;;;;;;;10.60;5.33;;;;;;;16.52;49.29;100157.24;1700903;84;21423;-71
2021/04/22 13:16:12;;;;;;;10.63;5.78;;;;;;;16.54;47.93;100150.39;1701697;84;21225;-74
2021/04/22 13:18:41;;;;;;;11.35;5.87;;;;;;;16.56;48.30;100148.22;1699394;83;21297;-70
2021/04/22 13:21:21;;;;;;;14.47;5.90;;;;;;;16.60;48.25;100141.66;1691891;83;21144;-67
2021/04/22 13:23:49;;;;;;;10.20;5.90;;;;;;;16.64;48.72;100146.45;1702040;83;21352;-70
2021/04/22 13:26:28;;;;;;;14.70;6.62;;;;;;;16.67;48.31;100144.62;1704169;83;21281;-70
2021/04/22 13:29:12;;;;;;;11.70;6.58;;;;;;;16.70;48.03;100144.12;1698121;83;21194;-68
2021/04/22 13:31:41;;;;;;;11.33;6.20;;;;;;;16.73;47.75;100153.33;1685968;84;21145;-67
2021/04/22 13:34:12;;;;;;;11.50;5.87;;;;;;;16.74;47.06;100152.78;1695355;83;21484;-72
2021/04/22 13:36:49;;;;;;;9.43;4.45;;;;;;;16.71;47.33;100158.27;1690283;84;21927;-71
2021/04/22 13:39:36;;;;;;;6.28;4.47;;;;;;;16.66;47.61;100165.07;1696282;83;21281;-75
2021/04/22 13:42:23;;;;;;;11.30;4.58;;;;;;;16.59;47.73;100161.56;1696344;83;21173;-75
2021/04/22 13:44:52;;;;;;;5.80;4.05;;;;;;;16.52;47.93;100140.11;1692162;83;21169;-71
2021/04/22 13:47:19;;;;;;;5.28;3.98;;;;;;;16.49;48.35;100136.45;1699295;83;21285;-70
2021/04/22 13:49:47;;;;;;;6.03;3.90;;;;;;;16.49;47.66;100135.06;1693818;83;21162;-72
2021/04/22 13:52:19;;;;;;;6.47;4.65;;;;;;;16.48;47.78;100138.37;1692649;83;21199;-65
2021/04/22 13:54:48;;;;;;;9.03;5.28;;;;;;;16.47;47.12;100148.29;1695807;83;21205;-72
2021/04/22 13:57:25;;;;;;;5.83;4.10;;;;;;;16.45;48.10;100151.30;1702880;83;21177;-69
2021/04/22 14:00:04;;;;;;;6.53;3.95;;;;;;;16.43;46.92;100148.48;1698316;83;21369;-68
2021/04/22 14:02:48;;;;;;;8.43;4.05;;;;;;;16.40;46.88;100141.50;1692502;83;21139;-68
2021/04/22 14:05:19;;;;;;;8.85;3.60;;;;;;;16.38;46.73;100144.22;1683873;84;21204;-70
2021/04/22 14:07:53;;;;;;;4.78;3.60;;;;;;;16.32;45.77;100145.19;1641248;86;21191;-70
2021/04/22 14:10:36;;;;;;;6.55;3.77;;;;;;;16.23;45.82;100145.22;1649349;86;21233;-73
2021/04/22 14:13:20;;;;;;;5.47;3.52;;;;;;;16.16;45.89;100140.66;1647750;86;21165;-69
2021/04/22 14:15:49;;;;;;;5.00;2.85;;;;;;;16.08;45.63;100141.55;1642636;86;21386;-68
2021/04/22 14:18:16;;;;;;;7.08;3.40;;;;;;;16.00;45.64;100143.30;1650912;86;21185;-67
2021/04/22 14:20:45;;;;;;;7.08;3.15;;;;;;;15.95;45.90;100145.94;1648341;86;21151;-70
2021/04/22 14:23:12;;;;;;;4.97;3.27;;;;;;;15.89;45.55;100146.35;1649413;86;21189;-69
2021/04/22 14:25:42;;;;;;;9.08;5.33;;;;;;;15.85;45.61;100139.62;1656981;86;21190;-69
2021/04/22 14:28:09;;;;;;;6.62;4.10;;;;;;;15.82;46.13;100138.17;1659962;86;21969;-73
2021/04/22 14:30:37;;;;;;;8.23;3.83;;;;;;;15.78;45.64;100143.88;1660505;86;21178;-71
2021/04/22 14:33:05;;;;;;;5.75;3.83;;;;;;;15.76;45.94;100172.28;1691125;83;21184;-69
2021/04/22 14:35:33;;;;;;;7.03;4.12;;;;;;;15.73;46.40;100174.13;1698602;83;21280;-64
2021/04/22 14:38:00;;;;;;;4.70;3.00;;;;;;;15.71;46.70;100183.73;1645925;86;21453;-66
2021/04/22 14:40:31;;;;;;;7.85;3.52;;;;;;;15.68;46.54;100187.81;1660724;86;21308;-65
2021/04/22 14:42:59;;;;;;;5.62;3.25;;;;;;;15.64;46.54;100176.09;1658498;86;21429;-64
2021/04/22 14:45:26;;;;;;;6.75;3.08;;;;;;;15.60;47.02;100184.52;1654360;86;21165;-65
2021/04/22 14:47:54;;;;;;;4.53;3.10;;;;;;;15.54;47.24;100180.20;1661546;85;21209;-69
2021/04/22 14:50:21;;;;;;;4.80;2.90;;;;;;;15.48;47.13;100178.39;1660462;86;21376;-64
2021/04/22 14:52:49;;;;;;;6.83;3.50;;;;;;;15.39;47.60;100174.28;1664015;86;21217;-65
2021/04/22 14:55:16;;;;;;;4.47;3.17;;;;;;;15.28;47.93;100159.05;1665823;86;21229;-64
2021/04/22 14:57:45;;;;;;;6.42;3.58;;;;;;;15.17;48.28;100153.25;1654492;86;21189;-67
2021/04/22 15:00:16;;;;;;;6.28;3.70;;;;;;;15.11;48.89;100168.52;1638409;87;21214;-63
2021/04/22 15:02:43;;;;;;;6.75;3.77;;;;;;;15.07;49.49;100156.27;1641201;86;21210;-64
2021/04/22 15:05:12;;;;;;;8.08;3.50;;;;;;;15.05;49.40;100149.61;1658179;86;21456;-64
2021/04/22 15:07:39;;;;;;;6.35;3.50;;;;;;;15.03;49.38;100159.19;1628809;87;21293;-66
2021/04/22 15:10:09;;;;;;;7.22;3.95;;;;;;;15.01;49.57;100147.55;1656646;85;21190;-68
2021/04/22 15:12:36;;;;;;;6.87;3.90;;;;;;;14.99;49.43;100151.07;1648019;86;21296;-64
2021/04/22 15:15:05;;;;;;;4.40;3.20;;;;;;;14.99;49.67;100153.83;1666122;86;21997;-64
2021/04/22 15:17:33;;;;;;;4.90;3.27;;;;;;;15.01;49.93;100150.30;1664214;86;21162;-64
2021/04/22 15:20:02;;;;;;;6.08;4.00;;;;;;;15.01;51.39;100138.73;1608394;87;21185;-64
2021/04/22 15:22:32;;;;;;;6.25;4.22;;;;;;;14.99;52.11;100111.06;1665571;86;21186;-65
2021/04/22 15:25:01;;;;;;;5.87;3.98;;;;;;;14.93;53.16;100103.16;1664343;86;21222;-64
2021/04/22 15:27:29;;;;;;;6.90;5.00;;;;;;;14.89;53.93;100113.81;1605127;87;22391;-63
2021/04/22 15:29:57;;;;;;;6.75;4.78;;;;;;;14.88;53.52;100117.65;1648563;86;21440;-63
2021/04/22 15:32:25;;;;;;;7.40;4.83;;;;;;;14.89;53.67;100111.59;1650873;85;21793;-64
2021/04/22 15:34:53;;;;;;;10.43;4.60;;;;;;;14.89;54.11;100118.48;1662547;86;21401;-65
2021/04/22 15:37:20;;;;;;;7.83;4.53;;;;;;;14.89;53.66;100110.22;1662295;86;21170;-65
2021/04/22 15:39:48;;;;;;;10.18;5.15;;;;;;;14.90;53.90;100112.73;1608010;87;21231;-62
2021/04/22 15:42:15;;;;;;;9.00;5.78;;;;;;;14.91;54.22;100119.09;1665545;86;21425;-61
2021/04/22 15:44:43;;;;;;;15.13;7.03;;;;;;;14.91;54.50;100119.94;1665732;86;21457;-66
2021/04/22 15:47:11;;;;;;;14.25;7.55;;;;;;;14.89;54.56;100116.57;1608246;87;21379;-67
2021/04/22 15:49:38;;;;;;;24.25;11.18;;;;;;;14.88;54.27;100121.78;1665981;86;21213;-71
2021/04/22 15:52:06;;;;;;;24.63;12.35;;;;;;;14.88;54.46;100125.08;1665846;86;21242;-62
2021/04/22 15:54:34;;;;;;;23.60;13.55;;;;;;;14.86;53.78;100118.42;1607991;89;21471;-66
2021/04/22 15:57:23;;;;;;;30.68;16.60;;;;;;;14.84;53.55;100120.56;1624611;86;21263;-66
2021/04/22 15:59:56;;;;;;;35.08;16.70;;;;;;;14.83;53.72;100114.75;1648464;87;21342;-67
2021/04/22 16:02:23;;;;;;;25.30;14.20;;;;;;;14.82;54.10;100122.72;1682647;84;21486;-63
2021/04/22 16:04:51;;;;;;;25.40;15.35;;;;;;;14.81;54.32;100124.33;1673589;84;21756;-65
2021/04/22 16:07:18;;;;;;;24.20;14.40;;;;;;;14.78;54.45;100122.88;1677847;83;21380;-63
2021/04/22 16:09:46;;;;;;;23.12;12.10;;;;;;;14.76;54.85;100122.27;1675635;85;21498;-64
2021/04/22 16:12:15;;;;;;;18.50;10.50;;;;;;;14.74;54.67;100123.57;1666322;84;21170;-64
2021/04/22 16:14:44;;;;;;;16.45;9.23;;;;;;;14.72;54.63;100126.56;1665670;85;21185;-63
2021/04/22 16:17:12;;;;;;;15.72;10.63;;;;;;;14.71;54.00;100130.39;1666557;85;21435;-64
2021/04/22 16:19:39;;;;;;;18.55;10.65;;;;;;;14.69;54.13;100128.94;1681172;83;21203;-63
2021/04/22 16:22:07;;;;;;;20.97;10.82;;;;;;;14.68;54.56;100119.83;1682770;84;21242;-63
2021/04/22 16:24:36;;;;;;;18.73;10.45;;;;;;;14.66;54.55;100111.48;1683012;84;21192;-64
2021/04/22 16:27:03;;;;;;;17.73;9.60;;;;;;;14.64;54.64;100118.60;1679687;85;21196;-65
2021/04/22 16:29:31;;;;;;;19.07;10.30;;;;;;;14.63;55.19;100123.81;1641467;86;21223;-63
2021/04/22 16:31:58;;;;;;;28.00;11.65;;;;;;;14.61;55.83;100129.25;1672455;84;21453;-63
2021/04/22 16:34:27;;;;;;;32.25;13.70;;;;;;;14.57;56.62;100134.39;1682322;84;21481;-63
2021/04/22 16:36:56;;;;;;;24.82;12.53;;;;;;;14.54;56.57;100143.12;1672465;84;21186;-66
2021/04/22 16:39:25;;;;;;;19.17;9.85;;;;;;;14.49;57.37;100157.59;1667740;84;21928;-65
2021/04/22 16:41:56;;;;;;;19.55;9.28;;;;;;;14.44;57.95;100170.38;1668693;84;21201;-68
2021/04/22 16:44:24;;;;;;;11.48;7.60;;;;;;;14.38;58.05;100196.06;1668692;84;21175;-64
2021/04/22 16:46:52;;;;;;;11.03;6.62;;;;;;;14.31;55.80;100211.83;1668638;84;21871;-64
2021/04/22 16:49:19;;;;;;;14.00;5.85;;;;;;;14.27;55.17;100217.77;1682131;84;21318;-64
2021/04/22 16:51:47;;;;;;;8.98;4.80;;;;;;;14.27;55.76;100216.38;1682438;83;21316;-70
2021/04/22 16:54:15;;;;;;;9.23;5.53;;;;;;;14.21;56.67;100220.05;1641052;86;21623;-62
2021/04/22 16:56:42;;;;;;;12.95;6.40;;;;;;;14.09;57.70;100230.11;1662458;84;21205;-63
2021/04/22 16:59:11;;;;;;;9.38;4.85;;;;;;;13.92;58.69;100206.95;1635607;86;21249;-64
2021/04/22 17:01:39;;;;;;;5.97;4.00;;;;;;;13.74;59.26;100216.52;1639497;85;21165;-62
2021/04/22 17:04:07;;;;;;;8.08;4.78;;;;;;;13.57;60.25;100228.03;1667538;84;21214;-61
2021/04/22 17:06:37;;;;;;;8.55;4.62;;;;;;;13.45;61.00;100250.98;1658199;86;22011;-65
2021/04/22 17:09:06;;;;;;;6.90;4.80;;;;;;;13.38;61.67;100262.55;1611902;89;21187;-62
2021/04/22 17:11:34;;;;;;;8.90;6.05;;;;;;;13.34;62.83;100271.78;1623143;88;21288;-62
2021/04/22 17:14:05;;;;;;;6.33;4.58;;;;;;;13.29;63.36;100279.84;1616892;86;21202;-63
2021/04/22 17:16:33;;;;;;;6.78;4.78;;;;;;;13.25;62.97;100285.47;1668759;84;21173;-62
2021/04/22 17:19:01;;;;;;;5.45;4.20;;;;;;;13.21;62.72;100273.22;1668456;86;21874;-62
2021/04/22 17:21:28;;;;;;;6.47;4.47;;;;;;;13.17;63.06;100262.34;1668506;84;21185;-62
2021/04/22 17:23:56;;;;;;;8.58;4.50;;;;;;;13.13;62.92;100222.54;1638272;86;21177;-61
2021/04/22 17:26:24;;;;;;;6.28;4.90;;;;;;;13.08;63.39;100163.21;1668443;86;21236;-60
2021/04/22 17:28:51;;;;;;;8.05;5.05;;;;;;;13.00;63.71;100183.52;1647996;86;21176;-62
2021/04/22 17:31:20;;;;;;;8.00;5.78;;;;;;;12.93;64.03;100189.59;1649850;85;21479;-62
2021/04/22 17:33:47;;;;;;;7.03;5.67;;;;;;;12.89;64.21;100188.34;1634874;87;21240;-61
2021/04/22 17:36:14;;;;;;;6.83;5.50;;;;;;;12.87;64.49;100196.80;1649926;85;21198;-62
2021/04/22 17:38:42;;;;;;;10.90;6.53;;;;;;;12.86;65.05;100197.87;1668727;85;21418;-62
2021/04/22 17:41:10;;;;;;;9.08;5.78;;;;;;;12.84;65.65;100197.77;1614462;87;21390;-62
2021/04/22 17:43:38;;;;;;;10.13;6.80;;;;;;;12.82;66.32;100205.39;1627719;86;21833;-62
2021/04/22 17:46:07;;;;;;;9.45;6.85;;;;;;;12.81;67.10;100214.70;1667976;84;21513;-62
2021/04/22 17:48:35;;;;;;;9.33;6.15;;;;;;;12.77;67.81;100217.57;1638649;86;21231;-62
2021/04/22 17:51:02;;;;;;;7.55;6.08;;;;;;;12.70;68.68;100232.19;1648108;87;21169;-62
2021/04/22 17:53:30;;;;;;;10.03;6.62;;;;;;;12.62;69.30;100237.07;1668631;86;21415;-61
2021/04/22 17:55:58;;;;;;;11.65;7.37;;;;;;;12.53;69.88;100221.87;1637715;86;21514;-62
2021/04/22 17:58:25;;;;;;;12.88;7.45;;;;;;;12.46;69.97;100233.41;1696498;84;21251;-63
2021/04/22 18:00:55;;;;;;;9.93;7.10;;;;;;;12.43;70.21;100232.45;1696464;84;21583;-62
2021/04/22 18:03:23;;;;;;;12.20;8.28;;;;;;;12.40;70.67;100231.52;1698316;84;21150;-62
2021/04/22 18:05:50;;;;;;;15.85;9.80;;;;;;;12.37;71.22;100232.78;1703501;83;21464;-61
2021/04/22 18:08:19;;;;;;;16.62;10.82;;;;;;;12.36;71.60;100244.30;1703500;84;21531;-61
2021/04/22 18:10:47;;;;;;;12.95;8.10;;;;;;;12.36;71.65;100255.83;1703540;84;21198;-62
2021/04/22 18:13:17;;;;;;;15.83;9.33;;;;;;;12.33;71.93;100251.56;1703396;83;21445;-62
2021/04/22 18:15:46;;;;;;;13.65;7.87;;;;;;;12.31;72.16;100238.57;1703574;84;21421;-62
2021/04/22 18:18:13;;;;;;;12.82;8.95;;;;;;;12.30;72.43;100225.89;1703474;83;21462;-61
2021/04/22 18:20:41;;;;;;;17.10;10.15;;;;;;;12.29;72.02;100200.85;1703429;83;21951;-61
2021/04/22 18:23:10;;;;;;;12.65;7.67;;;;;;;12.29;71.94;100196.73;1697747;84;21401;-61
2021/04/22 18:25:40;;;;;;;12.82;7.20;;;;;;;12.31;71.08;100195.98;1699633;83;21268;-61
2021/04/22 18:28:08;;;;;;;9.88;6.53;;;;;;;12.36;70.34;100185.23;1663911;83;21447;-60
2021/04/22 18:30:36;;;;;;;15.53;8.58;;;;;;;12.41;69.96;100187.34;1663052;85;21437;-62
2021/04/22 18:33:04;;;;;;;11.93;8.20;;;;;;;12.44;70.35;100186.06;1670388;85;21904;-62
2021/04/22 18:35:32;;;;;;;11.97;6.97;;;;;;;12.43;71.13;100183.84;1687200;85;21219;-62
2021/04/22 18:38:00;;;;;;;12.95;7.55;;;;;;;12.38;71.18;100195.48;1671375;83;21206;-62
2021/04/22 18:40:29;;;;;;;12.03;8.60;;;;;;;12.31;70.82;100190.50;1663015;85;21411;-62
2021/04/22 18:42:57;;;;;;;20.97;13.13;;;;;;;12.29;70.90;100190.39;1663181;85;21238;-62
2021/04/22 18:45:25;;;;;;;19.57;12.60;;;;;;;12.30;71.07;100197.58;1696488;84;21149;-62
2021/04/22 18:47:53;;;;;;;20.10;12.33;;;;;;;12.33;71.58;100204.86;1676176;83;21497;-61
2021/04/22 18:50:24;;;;;;;16.87;8.70;;;;;;;12.34;72.24;100213.42;1663181;85;21392;-61
2021/04/22 18:52:54;;;;;;;14.75;8.30;;;;;;;12.34;72.57;100212.05;1663162;85;21178;-62
2021/04/22 18:55:24;;;;;;;21.00;10.75;;;;;;;12.34;72.81;100207.92;1663050;85;21476;-62
2021/04/22 18:57:54;;;;;;;20.57;11.30;;;;;;;12.37;72.75;100208.05;1663158;86;21249;-61
2021/04/22 19:00:26;;;;;;;20.32;12.13;;;;;;;12.37;72.61;100206.16;1663187;86;21217;-61
2021/04/22 19:02:54;;;;;;;22.85;10.50;;;;;;;12.38;72.19;100202.34;1663351;86;21206;-61
2021/04/22 19:05:25;;;;;;;20.57;10.45;;;;;;;12.35;71.75;100197.28;1663227;85;21320;-61
2021/04/22 19:07:52;;;;;;;19.65;10.05;;;;;;;12.33;71.53;100192.50;1663086;86;21584;-62
2021/04/22 19:10:24;;;;;;;19.77;9.88;;;;;;;12.38;71.90;100196.01;1679193;83;21185;-62
2021/04/22 19:12:52;;;;;;;18.73;9.83;;;;;;;12.36;72.53;100190.73;1679769;84;21183;-61
2021/04/22 19:15:20;;;;;;;19.48;9.93;;;;;;;12.32;73.07;100194.09;1679628;85;21218;-62
2021/04/22 19:17:47;;;;;;;19.02;11.40;;;;;;;12.28;73.49;100196.42;1679554;85;21455;-62
2021/04/22 19:20:16;;;;;;;17.30;9.30;;;;;;;12.25;73.76;100195.47;1679437;85;21190;-62
2021/04/22 19:22:44;;;;;;;17.92;9.85;;;;;;;12.24;74.10;100194.31;1679785;84;21184;-62
2021/04/22 19:25:13;;;;;;;19.00;10.20;;;;;;;12.25;74.30;100200.97;1679633;85;21190;-61
2021/04/22 19:27:42;;;;;;;17.40;9.38;;;;;;;12.24;74.37;100199.28;1679612;84;21178;-60
2021/04/22 19:30:13;;;;;;;16.32;9.03;;;;;;;12.24;74.62;100202.55;1679555;85;21289;-62
2021/04/22 19:32:41;;;;;;;15.83;9.50;;;;;;;12.21;74.67;100202.45;1679787;85;21230;-62
2021/04/22 19:35:13;;;;;;;14.93;9.25;;;;;;;12.20;74.81;100216.40;1679591;84;21209;-60
2021/04/22 19:37:42;;;;;;;15.23;8.83;;;;;;;12.19;74.96;100216.08;1679760;85;21202;-62
2021/04/22 19:40:22;;;;;;;15.78;9.53;;;;;;;12.18;75.09;100217.14;1679742;84;21218;-60
2021/04/22 19:42:52;;;;;;;19.10;10.25;;;;;;;12.17;74.98;100225.91;1695485;84;21995;-62
2021/04/22 19:45:20;;;;;;;21.75;10.85;;;;;;;12.14;74.98;100224.96;1703317;83;21338;-63
2021/04/22 19:47:47;;;;;;;23.92;12.75;;;;;;;12.17;74.96;100232.77;1703230;84;21203;-61
2021/04/22 19:50:15;;;;;;;33.35;14.25;;;;;;;12.16;74.99;100229.71;1703172;84;21151;-63
2021/04/22 19:52:43;;;;;;;26.97;15.30;;;;;;;12.16;75.18;100224.75;1681603;83;21193;-63
2021/04/22 19:55:12;;;;;;;28.17;18.10;;;;;;;12.15;75.05;100216.19;1663183;85;21483;-62
2021/04/22 19:57:41;;;;;;;24.92;17.57;;;;;;;12.15;74.68;100223.90;1663184;85;21186;-63
2021/04/22 20:00:10;;;;;;;20.23;12.98;;;;;;;12.14;74.37;100223.59;1663153;86;21207;-63
2021/04/22 20:02:43;;;;;;;20.88;14.28;;;;;;;12.12;74.34;100216.09;1663290;85;21200;-61
2021/04/22 20:05:12;;;;;;;22.10;13.28;;;;;;;12.08;74.48;100216.20;1656719;85;21448;-62
2021/04/22 20:07:40;;;;;;;22.07;12.28;;;;;;;12.07;74.40;100214.51;1663188;86;21238;-63
2021/04/22 20:10:09;;;;;;;23.90;14.55;;;;;;;12.06;74.58;100223.27;1663250;86;21434;-62
2021/04/22 20:12:38;;;;;;;24.10;13.08;;;;;;;12.02;74.88;100232.99;1663247;85;21515;-61
2021/04/22 20:15:07;;;;;;;22.45;14.18;;;;;;;11.96;75.29;100226.97;1634674;85;21205;-62
2021/04/22 20:17:34;;;;;;;21.30;13.32;;;;;;;11.87;75.60;100227.39;1663119;86;21194;-62
2021/04/22 20:20:02;;;;;;;20.77;12.68;;;;;;;11.80;76.02;100226.54;1663257;85;21206;-62
2021/04/22 20:22:30;;;;;;;19.62;11.85;;;;;;;11.77;76.26;100217.32;1663262;86;21401;-62
2021/04/22 20:24:57;;;;;;;23.52;11.53;;;;;;;11.71;76.28;100221.22;1663180;85;21416;-62
2021/04/22 20:27:25;;;;;;;23.45;12.85;;;;;;;11.65;76.43;100219.81;1663104;86;21497;-61
2021/04/22 20:29:54;;;;;;;20.82;12.47;;;;;;;11.59;76.55;100205.56;1663145;85;22023;-62